createdAt,value
2022-12-01T00:01:22.393Z,49.50
2022-12-01T00:03:50.389Z,50.37
2022-12-01T00:06:20.042Z,51.00
2022-12-01T00:09:04.440Z,45.77
2022-12-01T00:11:34.461Z,46.70
2022-12-01T00:14:02.576Z,47.47
2022-12-01T00:16:30.928Z,47.43
2022-12-01T00:18:59.319Z,48.27
2022-12-01T00:21:28.008Z,48.37
2022-12-01T00:23:57.727Z,46.37
2022-12-01T00:26:27.020Z,46.43
2022-12-01T00:28:57.983Z,47.53
2022-12-01T00:31:26.557Z,46.47
2022-12-01T00:33:54.628Z,47.87
2022-12-01T00:36:22.998Z,46.00
2022-12-01T00:38:53.669Z,47.97
2022-12-01T00:41:22.021Z,49.90
2022-12-01T00:43:50.100Z,47.20
2022-12-01T00:46:19.925Z,49.07
2022-12-01T00:48:48.229Z,46.60
2022-12-01T00:51:16.219Z,48.33
2022-12-01T00:53:44.371Z,47.40
2022-12-01T00:56:12.396Z,49.00
2022-12-01T00:58:40.462Z,47.03
2022-12-01T01:01:08.480Z,47.63
2022-12-01T01:03:37.853Z,46.47
2022-12-01T01:06:07.906Z,49.00
2022-12-01T01:08:36.167Z,47.70
2022-12-01T01:11:04.622Z,50.10
2022-12-01T01:13:33.014Z,49.80
2022-12-01T01:16:02.248Z,47.93
2022-12-01T01:18:30.784Z,48.80
2022-12-01T01:21:01.632Z,46.63
2022-12-01T01:23:29.826Z,48.87
2022-12-01T01:26:03.050Z,47.83
2022-12-01T01:28:31.925Z,49.50
2022-12-01T01:31:00.255Z,50.57
2022-12-01T01:33:28.302Z,49.20
2022-12-01T01:36:01.214Z,46.07
2022-12-01T01:38:29.239Z,47.07
2022-12-01T01:40:57.407Z,47.77
2022-12-01T01:43:44.059Z,50.33
2022-12-01T01:46:13.630Z,46.20
2022-12-01T01:48:44.575Z,48.73
2022-12-01T01:51:15.522Z,48.20
2022-12-01T01:53:46.434Z,49.63
2022-12-01T01:56:14.812Z,49.33
2022-12-01T01:58:43.184Z,47.43
2022-12-01T02:01:11.769Z,47.23
2022-12-01T02:03:42.537Z,48.60
2022-12-01T02:06:12.131Z,49.50
2022-12-01T02:08:41.494Z,48.50
2022-12-01T02:11:34.369Z,47.50
2022-12-01T02:14:10.655Z,49.60
2022-12-01T02:16:44.828Z,47.37
2022-12-01T02:19:38.914Z,49.23
2022-12-01T02:22:19.515Z,47.53
2022-12-01T02:25:16.647Z,48.57
2022-12-01T02:28:25.012Z,49.03
2022-12-01T02:30:57.941Z,45.67
2022-12-01T02:33:30.449Z,46.67
2022-12-01T02:36:02.970Z,49.07
2022-12-01T02:38:34.738Z,49.03
2022-12-01T02:41:11.386Z,49.77
2022-12-01T02:43:44.763Z,48.63
2022-12-01T02:46:18.933Z,48.27
2022-12-01T02:48:50.314Z,48.73
2022-12-01T02:51:21.386Z,47.43
2022-12-01T02:53:49.705Z,46.10
2022-12-01T02:56:23.225Z,45.27
2022-12-01T02:58:51.527Z,49.00
2022-12-01T03:01:33.589Z,46.83
2022-12-01T03:04:12.315Z,47.13
2022-12-01T03:06:49.439Z,48.93
2022-12-01T03:09:27.237Z,49.80
2022-12-01T03:12:04.395Z,48.30
2022-12-01T03:14:40.616Z,50.70
2022-12-01T03:17:15.758Z,49.27
2022-12-01T03:19:48.709Z,47.53
2022-12-01T03:22:23.146Z,48.33
2022-12-01T03:24:52.466Z,50.13
2022-12-01T03:27:26.120Z,49.83
2022-12-01T03:29:57.554Z,48.90
2022-12-01T03:32:31.796Z,51.20
2022-12-01T03:35:05.844Z,51.23
2022-12-01T03:37:37.669Z,51.43
2022-12-01T03:40:09.915Z,50.13
2022-12-01T03:42:42.109Z,50.30
2022-12-01T03:45:17.026Z,52.87
2022-12-01T03:47:46.905Z,51.70
2022-12-01T03:50:15.409Z,48.13
2022-12-01T03:52:52.532Z,50.20
2022-12-01T03:55:25.067Z,46.07
2022-12-01T03:57:57.947Z,47.03
2022-12-01T04:00:26.762Z,50.23
2022-12-01T04:02:58.198Z,48.63
2022-12-01T04:05:27.095Z,47.83
2022-12-01T04:07:55.158Z,50.10
2022-12-01T04:10:23.551Z,48.53
2022-12-01T04:12:50.716Z,50.43
2022-12-01T04:15:18.929Z,49.63
2022-12-01T04:17:46.909Z,46.70
2022-12-01T04:20:17.247Z,49.63
2022-12-01T04:22:45.904Z,48.33
2022-12-01T04:25:13.984Z,47.77
2022-12-01T04:27:42.050Z,46.77
2022-12-01T04:30:11.494Z,46.57
2022-12-01T04:32:40.600Z,47.20
2022-12-01T04:35:10.436Z,48.13
2022-12-01T04:37:40.454Z,47.77
2022-12-01T04:40:09.696Z,48.67
2022-12-01T04:42:37.713Z,48.30
2022-12-01T04:45:06.164Z,48.77
2022-12-01T04:47:34.121Z,49.03
2022-12-01T04:50:02.141Z,50.23
2022-12-01T04:52:35.109Z,47.67
2022-12-01T04:55:05.067Z,44.37
2022-12-01T04:57:33.062Z,47.73
2022-12-01T05:00:01.066Z,50.37
2022-12-01T05:02:29.081Z,47.10
2022-12-01T05:04:57.122Z,45.87
2022-12-01T05:07:25.110Z,46.00
2022-12-01T05:09:55.083Z,44.07
2022-12-01T05:12:24.453Z,48.23
2022-12-01T05:14:52.473Z,47.63
2022-12-01T05:17:20.487Z,47.83
2022-12-01T05:20:05.985Z,47.50
2022-12-01T05:23:03.755Z,48.23
2022-12-01T05:25:21.985Z,48.83
2022-12-01T05:27:51.401Z,47.93
2022-12-01T05:30:22.058Z,49.97
2022-12-01T05:32:53.545Z,48.60
2022-12-01T05:35:21.536Z,47.23
2022-12-01T05:37:49.539Z,45.93
2022-12-01T05:40:17.721Z,49.23
2022-12-01T05:42:45.786Z,50.90
2022-12-01T05:45:15.163Z,48.20
2022-12-01T05:47:43.170Z,49.97
2022-12-01T05:50:11.668Z,48.30
2022-12-01T05:52:39.644Z,47.30
2022-12-01T05:55:08.607Z,47.77
2022-12-01T05:57:36.567Z,48.23
2022-12-01T06:00:06.560Z,47.43
2022-12-01T06:02:36.025Z,47.07
2022-12-01T06:05:04.172Z,48.20
2022-12-01T06:07:33.669Z,49.10
2022-12-01T06:10:02.114Z,48.00
2022-12-01T06:12:30.120Z,47.00
2022-12-01T06:14:58.108Z,47.97
2022-12-01T06:17:26.102Z,48.27
2022-12-01T06:19:55.463Z,50.77
2022-12-01T06:22:23.445Z,49.03
2022-12-01T06:24:51.527Z,48.33
2022-12-01T06:27:19.511Z,49.23
2022-12-01T06:29:49.218Z,47.40
2022-12-01T06:32:17.458Z,48.43
2022-12-01T06:34:45.446Z,49.03
2022-12-01T06:37:16.755Z,49.43
2022-12-01T06:39:44.773Z,48.93
2022-12-01T06:42:13.126Z,48.47
2022-12-01T06:44:41.128Z,45.80
2022-12-01T06:47:09.196Z,49.57
2022-12-01T06:49:37.957Z,50.40
2022-12-01T06:52:06.080Z,46.70
2022-12-01T06:54:37.442Z,48.57
2022-12-01T06:57:05.870Z,48.10
2022-12-01T06:59:34.130Z,48.70
2022-12-01T07:02:03.059Z,48.50
2022-12-01T07:04:31.762Z,47.33
2022-12-01T07:06:59.743Z,49.60
2022-12-01T07:09:27.739Z,50.43
2022-12-01T07:11:57.080Z,49.47
2022-12-01T07:14:26.586Z,49.67
2022-12-01T07:16:55.102Z,49.57
2022-12-01T07:19:23.182Z,49.37
2022-12-01T07:21:51.173Z,49.60
2022-12-01T07:24:19.301Z,49.77
2022-12-01T07:26:48.150Z,49.47
2022-12-01T07:29:17.671Z,46.83
2022-12-01T07:31:45.673Z,49.03
2022-12-01T07:34:14.263Z,50.03
2022-12-01T07:36:42.346Z,48.23
2022-12-01T07:39:10.365Z,49.23
2022-12-01T07:41:38.350Z,48.57
2022-12-01T07:44:06.446Z,49.30
2022-12-01T07:46:35.940Z,49.10
2022-12-01T07:49:07.089Z,48.27
2022-12-01T07:51:35.973Z,50.47
2022-12-01T07:54:06.312Z,46.87
2022-12-01T07:56:35.148Z,49.43
2022-12-01T07:59:03.290Z,48.23
2022-12-01T08:01:31.368Z,48.03
2022-12-01T08:04:01.535Z,49.80
2022-12-01T08:06:29.510Z,51.33
2022-12-01T08:08:57.631Z,48.70
2022-12-01T08:11:26.980Z,49.53
2022-12-01T08:13:54.974Z,46.73
2022-12-01T08:16:24.532Z,48.00
2022-12-01T08:18:53.078Z,49.13
2022-12-01T08:21:24.598Z,46.40
2022-12-01T08:23:55.497Z,46.97
2022-12-01T08:26:25.229Z,46.97
2022-12-01T08:28:53.249Z,47.90
2022-12-01T08:31:24.001Z,48.10
2022-12-01T08:33:52.815Z,46.43
2022-12-01T08:36:22.969Z,49.77
2022-12-01T08:38:52.627Z,50.03
2022-12-01T08:41:21.571Z,47.03
2022-12-01T08:43:58.825Z,45.97
2022-12-01T08:46:28.767Z,46.83
2022-12-01T08:48:57.697Z,48.00
2022-12-01T08:51:27.956Z,46.67
2022-12-01T08:53:57.699Z,47.07
2022-12-01T08:56:27.970Z,48.87
2022-12-01T08:58:56.399Z,46.83
2022-12-01T09:01:25.676Z,46.53
2022-12-01T09:04:05.706Z,47.37
2022-12-01T09:06:39.430Z,47.20
2022-12-01T09:09:08.573Z,46.80
2022-12-01T09:11:36.666Z,45.73
2022-12-01T09:14:05.257Z,50.27
2022-12-01T09:16:33.802Z,51.70
2022-12-01T09:19:02.058Z,56.13
2022-12-01T09:21:31.451Z,53.93
2022-12-01T09:24:01.637Z,48.90
2022-12-01T09:26:30.100Z,45.00
2022-12-01T09:29:00.727Z,45.13
2022-12-01T09:31:29.553Z,44.83
2022-12-01T09:33:59.298Z,45.83
2022-12-01T09:36:28.441Z,45.07
2022-12-01T09:38:56.482Z,44.93
2022-12-01T09:41:28.158Z,45.43
2022-12-01T09:44:01.711Z,44.57
2022-12-01T09:46:34.284Z,44.90
2022-12-01T09:49:03.681Z,43.77
2022-12-01T09:51:36.071Z,44.90
2022-12-01T09:54:04.652Z,43.10
2022-12-01T09:56:41.352Z,44.80
2022-12-01T09:59:19.602Z,43.67
2022-12-01T10:01:51.104Z,45.37
2022-12-01T10:04:23.798Z,44.43
2022-12-01T10:06:57.419Z,43.93
2022-12-01T10:09:30.770Z,43.70
2022-12-01T10:12:07.787Z,45.23
2022-12-01T10:14:37.442Z,44.33
2022-12-01T10:17:15.222Z,44.53
2022-12-01T10:19:51.031Z,41.23
2022-12-01T10:22:43.264Z,42.27
2022-12-01T10:25:22.012Z,40.83
2022-12-01T10:28:04.599Z,41.73
2022-12-01T10:30:39.135Z,43.57
2022-12-01T10:33:18.366Z,42.60
2022-12-01T10:35:46.476Z,40.23
2022-12-01T10:38:20.925Z,41.17
2022-12-01T10:40:50.884Z,41.37
2022-12-01T10:43:22.287Z,43.57
2022-12-01T10:45:50.573Z,40.10
2022-12-01T10:48:20.705Z,41.53
2022-12-01T10:50:50.463Z,42.23
2022-12-01T10:53:32.018Z,40.87
2022-12-01T10:56:05.275Z,40.43
2022-12-01T10:58:41.205Z,46.87
2022-12-01T11:01:18.537Z,40.93
2022-12-01T11:03:52.173Z,40.37
2022-12-01T11:06:25.245Z,40.57
2022-12-01T11:08:56.248Z,38.63
2022-12-01T11:11:31.147Z,37.60
2022-12-01T11:14:04.608Z,38.10
2022-12-01T11:16:51.999Z,36.93
2022-12-01T11:19:27.211Z,36.57
2022-12-01T11:21:57.759Z,36.13
2022-12-01T11:24:42.341Z,34.67
2022-12-01T11:27:17.661Z,34.97
2022-12-01T11:29:49.601Z,33.10
2022-12-01T11:32:22.701Z,33.43
2022-12-01T11:34:54.342Z,33.17
2022-12-01T11:37:25.383Z,31.73
2022-12-01T11:39:53.697Z,31.30
2022-12-01T11:42:27.923Z,29.97
2022-12-01T11:45:01.671Z,28.87
2022-12-01T11:47:29.858Z,30.23
2022-12-01T11:49:59.684Z,28.17
2022-12-01T11:52:31.185Z,28.73
2022-12-01T11:55:08.465Z,28.27
2022-12-01T11:57:40.864Z,28.00
2022-12-01T12:00:16.851Z,26.93
2022-12-01T12:02:56.830Z,27.63
2022-12-01T12:06:17.779Z,26.77
2022-12-01T12:09:12.366Z,26.30
2022-12-01T12:11:47.204Z,29.50
2022-12-01T12:14:29.819Z,26.13
2022-12-01T12:17:16.852Z,27.13
2022-12-01T12:20:20.461Z,31.90
2022-12-01T12:22:59.785Z,27.33
2022-12-01T12:25:38.221Z,25.93
2022-12-01T12:28:29.465Z,25.60
2022-12-01T12:31:04.988Z,25.37
2022-12-01T12:33:57.820Z,25.10
2022-12-01T12:36:37.299Z,25.17
2022-12-01T12:39:18.706Z,26.23
2022-12-01T12:41:49.554Z,24.83
2022-12-01T12:44:44.408Z,24.17
2022-12-01T12:47:26.493Z,26.20
2022-12-01T12:50:06.987Z,23.57
2022-12-01T12:52:37.739Z,24.37
2022-12-01T12:55:15.588Z,26.07
2022-12-01T12:57:48.852Z,24.33
2022-12-01T13:00:19.656Z,24.47
2022-12-01T13:02:52.186Z,23.67
2022-12-01T13:05:25.996Z,23.87
2022-12-01T13:07:59.708Z,23.13
2022-12-01T13:10:37.728Z,23.63
2022-12-01T13:13:18.792Z,22.83
2022-12-01T13:15:49.123Z,22.93
2022-12-01T13:18:27.499Z,22.60
2022-12-01T13:20:58.212Z,23.17
2022-12-01T13:23:27.141Z,21.57
2022-12-01T13:25:58.293Z,21.93
2022-12-01T13:28:30.190Z,22.93
2022-12-01T13:31:01.313Z,22.40
2022-12-01T13:33:29.852Z,22.30
2022-12-01T13:36:29.823Z,24.50
2022-12-01T13:38:57.989Z,25.27
2022-12-01T13:41:29.509Z,23.40
2022-12-01T13:44:03.694Z,22.33
2022-12-01T13:46:34.586Z,24.60
2022-12-01T13:49:05.149Z,22.53
2022-12-01T13:52:06.308Z,22.50
2022-12-01T13:54:38.292Z,20.63
2022-12-01T13:57:13.149Z,21.80
2022-12-01T14:00:07.707Z,23.47
2022-12-01T14:02:37.571Z,21.13
2022-12-01T14:05:46.057Z,21.70
2022-12-01T14:08:22.668Z,22.37
2022-12-01T14:10:57.702Z,20.83
2022-12-01T14:13:27.361Z,21.43
2022-12-01T14:15:57.345Z,21.03
2022-12-01T14:18:45.258Z,20.80
2022-12-01T14:21:14.603Z,21.50
2022-12-01T14:24:01.953Z,19.97
2022-12-01T14:26:32.323Z,22.20
2022-12-01T14:29:12.000Z,23.07
2022-12-01T14:32:25.922Z,21.80
2022-12-01T14:35:03.999Z,20.83
2022-12-01T14:37:43.545Z,24.10
2022-12-01T14:40:18.493Z,22.50
2022-12-01T14:43:09.358Z,24.43
2022-12-01T14:45:42.591Z,21.23
2022-12-01T14:48:14.640Z,20.40
2022-12-01T14:50:49.104Z,20.97
2022-12-01T14:53:24.439Z,21.63
2022-12-01T14:55:57.309Z,20.87
2022-12-01T14:58:29.771Z,22.30
2022-12-01T15:01:08.346Z,21.33
2022-12-01T15:03:40.944Z,21.30
2022-12-01T15:06:09.459Z,21.33
2022-12-01T15:08:43.550Z,20.77
2022-12-01T15:11:22.793Z,21.13
2022-12-01T15:13:54.037Z,20.50
2022-12-01T15:16:24.039Z,21.90
2022-12-01T15:18:52.461Z,20.43
2022-12-01T15:21:23.482Z,21.10
2022-12-01T15:23:56.695Z,21.87
2022-12-01T15:26:27.446Z,22.07
2022-12-01T15:29:17.002Z,21.40
2022-12-01T15:31:48.172Z,21.30
2022-12-01T15:34:20.196Z,19.80
2022-12-01T15:36:49.282Z,22.70
2022-12-01T15:39:19.307Z,22.73
2022-12-01T15:41:53.705Z,24.90
2022-12-01T15:44:29.222Z,30.70
2022-12-01T15:46:57.366Z,23.43
2022-12-01T15:49:32.597Z,21.27
2022-12-01T15:52:08.807Z,22.23
2022-12-01T15:54:38.101Z,22.73
2022-12-01T15:57:07.024Z,19.90
2022-12-01T15:59:39.935Z,20.83
2022-12-01T16:02:22.464Z,19.83
2022-12-01T16:05:00.291Z,21.33
2022-12-01T16:08:04.433Z,19.80
2022-12-01T16:10:30.125Z,20.00
2022-12-01T16:13:31.312Z,19.50
2022-12-01T16:16:00.749Z,21.37
2022-12-01T16:18:32.296Z,19.60
2022-12-01T16:21:05.356Z,20.43
2022-12-01T16:23:34.349Z,19.63
2022-12-01T16:26:08.351Z,20.20
2022-12-01T16:28:36.573Z,20.10
2022-12-01T16:31:10.176Z,19.50
2022-12-01T16:33:40.645Z,19.70
2022-12-01T16:36:09.177Z,18.33
2022-12-01T16:38:37.162Z,19.63
2022-12-01T16:41:17.256Z,20.27
2022-12-01T16:44:12.603Z,20.00
2022-12-01T16:46:38.974Z,19.67
2022-12-01T16:49:07.288Z,20.27
2022-12-01T16:51:54.843Z,20.33
2022-12-01T16:54:23.461Z,18.90
2022-12-01T16:56:51.441Z,19.80
2022-12-01T16:59:20.094Z,20.60
2022-12-01T17:01:49.532Z,21.10
2022-12-01T17:04:17.917Z,19.70
2022-12-01T17:06:45.943Z,18.63
2022-12-01T17:09:13.962Z,19.23
2022-12-01T17:11:41.916Z,18.77
2022-12-01T17:14:09.953Z,17.70
2022-12-01T17:16:38.556Z,18.10
2022-12-01T17:19:07.933Z,17.40
2022-12-01T17:21:35.907Z,16.77
2022-12-01T17:24:04.312Z,16.40
2022-12-01T17:26:32.308Z,16.77
2022-12-01T17:29:00.304Z,16.83
2022-12-01T17:31:28.701Z,34.90
2022-12-01T17:33:56.703Z,93.83
2022-12-01T17:36:26.087Z,36.57
2022-12-01T17:38:54.053Z,21.27
2022-12-01T17:41:24.777Z,19.70
2022-12-01T17:43:52.908Z,22.60
2022-12-01T17:46:20.929Z,23.50
2022-12-01T17:48:50.182Z,28.27
2022-12-01T17:51:18.161Z,28.57
2022-12-01T17:53:47.483Z,24.67
2022-12-01T17:56:17.382Z,22.77
2022-12-01T17:58:45.554Z,21.97
2022-12-01T18:01:16.189Z,21.60
2022-12-01T18:03:44.957Z,25.10
2022-12-01T18:06:13.641Z,26.50
2022-12-01T18:08:42.134Z,23.67
2022-12-01T18:11:14.022Z,21.93
2022-12-01T18:13:43.917Z,22.07
2022-12-01T18:16:14.971Z,21.67
2022-12-01T18:18:43.346Z,22.17
2022-12-01T18:21:14.208Z,23.07
2022-12-01T18:23:42.248Z,23.30
2022-12-01T18:26:15.928Z,28.10
2022-12-01T18:28:44.739Z,26.10
2022-12-01T18:31:14.769Z,21.70
2022-12-01T18:33:44.608Z,20.30
2022-12-01T18:36:14.817Z,20.30
2022-12-01T18:38:42.946Z,18.47
2022-12-01T18:41:12.263Z,19.70
2022-12-01T18:43:40.382Z,20.77
2022-12-01T18:46:08.857Z,20.93
2022-12-01T18:48:37.067Z,19.13
2022-12-01T18:51:06.346Z,20.30
2022-12-01T18:53:35.030Z,20.20
2022-12-01T18:56:04.292Z,21.13
2022-12-01T18:58:34.537Z,19.33
2022-12-01T19:01:03.373Z,21.77
2022-12-01T19:03:31.716Z,22.53
2022-12-01T19:05:59.916Z,21.87
2022-12-01T19:08:27.892Z,22.60
2022-12-01T19:11:00.353Z,21.60
2022-12-01T19:13:28.511Z,21.77
2022-12-01T19:15:58.232Z,21.47
2022-12-01T19:18:26.310Z,21.43
2022-12-01T19:20:54.291Z,22.13
2022-12-01T19:23:22.262Z,22.23
2022-12-01T19:25:50.289Z,29.37
2022-12-01T19:28:18.242Z,26.73
2022-12-01T19:30:48.284Z,23.37
2022-12-01T19:33:17.976Z,23.33
2022-12-01T19:35:45.960Z,21.70
2022-12-01T19:38:14.286Z,24.77
2022-12-01T19:40:43.141Z,25.83
2022-12-01T19:43:11.125Z,23.67
2022-12-01T19:45:39.839Z,22.87
2022-12-01T19:48:07.939Z,22.33
2022-12-01T19:50:37.859Z,24.27
2022-12-01T19:53:05.846Z,22.87
2022-12-01T19:55:33.890Z,23.47
2022-12-01T19:58:01.870Z,24.00
2022-12-01T20:00:30.206Z,23.47
2022-12-01T20:02:59.849Z,23.03
2022-12-01T20:05:27.834Z,24.17
2022-12-01T20:07:57.253Z,23.80
2022-12-01T20:10:25.265Z,25.07
2022-12-01T20:12:53.247Z,26.27
2022-12-01T20:15:21.335Z,25.13
2022-12-01T20:17:50.196Z,25.70
2022-12-01T20:20:18.258Z,24.70
2022-12-01T20:22:46.254Z,27.40
2022-12-01T20:25:15.613Z,27.93
2022-12-01T20:27:45.386Z,28.57
2022-12-01T20:30:14.962Z,26.73
2022-12-01T20:32:42.982Z,27.93
2022-12-01T20:35:11.016Z,27.10
2022-12-01T20:37:39.018Z,29.47
2022-12-01T20:40:08.268Z,29.23
2022-12-01T20:42:39.648Z,29.93
2022-12-01T20:45:08.343Z,29.27
2022-12-01T20:47:37.035Z,29.80
2022-12-01T20:50:05.654Z,30.30
2022-12-01T20:52:33.645Z,30.67
2022-12-01T20:55:01.631Z,31.03
2022-12-01T20:57:29.698Z,31.00
2022-12-01T20:59:59.041Z,32.30
2022-12-01T21:02:27.068Z,31.20
2022-12-01T21:04:58.809Z,29.90
2022-12-01T21:07:27.224Z,29.50
2022-12-01T21:09:55.219Z,27.83
2022-12-01T21:12:40.931Z,28.27
2022-12-01T21:15:25.406Z,26.93
2022-12-01T21:17:59.078Z,30.03
2022-12-01T21:20:29.408Z,27.20
2022-12-01T21:23:02.290Z,27.30
2022-12-01T21:25:30.978Z,25.47
2022-12-01T21:28:04.830Z,25.87
2022-12-01T21:30:34.262Z,26.63
2022-12-01T21:33:16.838Z,27.00
2022-12-01T21:35:44.816Z,25.00
2022-12-01T21:38:18.966Z,25.80
2022-12-01T21:40:49.915Z,23.07
2022-12-01T21:43:25.343Z,25.90
2022-12-01T21:45:57.630Z,25.10
2022-12-01T21:48:25.746Z,22.47
2022-12-01T21:51:01.575Z,23.17
2022-12-01T21:53:37.279Z,25.60
2022-12-01T21:56:05.521Z,23.13
2022-12-01T21:58:37.275Z,22.27
2022-12-01T22:01:17.892Z,23.70
2022-12-01T22:03:47.014Z,22.40
2022-12-01T22:06:29.701Z,22.47
2022-12-01T22:09:01.418Z,22.57
2022-12-01T22:11:31.057Z,23.40
2022-12-01T22:14:10.487Z,23.00
2022-12-01T22:16:42.967Z,22.57
2022-12-01T22:19:27.149Z,23.13
2022-12-01T22:22:02.879Z,21.27
2022-12-01T22:24:39.823Z,22.57
2022-12-01T22:27:24.607Z,23.27
2022-12-01T22:29:53.867Z,22.10
2022-12-01T22:32:52.132Z,23.97
2022-12-01T22:35:36.115Z,23.13
2022-12-01T22:38:31.923Z,23.33
2022-12-01T22:41:03.869Z,23.60
2022-12-01T22:43:46.077Z,23.77
2022-12-01T22:46:33.259Z,21.90
2022-12-01T22:49:13.654Z,22.57
2022-12-01T22:51:44.086Z,21.43
2022-12-01T22:54:28.433Z,23.27
2022-12-01T22:57:06.278Z,21.67
2022-12-01T22:59:36.634Z,22.67
2022-12-01T23:02:20.731Z,22.80
2022-12-01T23:04:53.522Z,20.37
2022-12-01T23:07:32.499Z,22.87
2022-12-01T23:10:06.471Z,23.10
2022-12-01T23:12:37.000Z,23.27
2022-12-01T23:15:23.593Z,20.67
2022-12-01T23:17:52.060Z,21.60
2022-12-01T23:20:34.753Z,24.30
2022-12-01T23:23:04.879Z,22.80
2022-12-01T23:25:35.037Z,23.10
2022-12-01T23:28:06.636Z,22.47
2022-12-01T23:30:35.708Z,23.10
2022-12-01T23:33:18.702Z,22.33
2022-12-01T23:35:52.441Z,23.63
2022-12-01T23:38:23.168Z,23.47
2022-12-01T23:40:53.726Z,23.23
2022-12-01T23:43:24.010Z,23.03
2022-12-01T23:45:59.417Z,23.00
2022-12-01T23:48:33.724Z,23.70
2022-12-01T23:51:03.594Z,24.53
2022-12-01T23:53:33.424Z,23.83
2022-12-01T23:56:08.273Z,23.90
2022-12-01T23:58:36.312Z,22.90
